sensor_id;sensor_type;location;lat;lon;timestamp;P1;durP1;ratioP1;P2;durP2;ratioP2
4089;SDS011;2059;48.538;12.146;2023-03-31T00:02:33;5.43;;;4.07;;
4089;SDS011;2059;48.538;12.146;2023-03-31T00:07:37;8.13;;;4.00;;
4089;SDS011;2059;48.538;12.146;2023-03-31T00:12:39;3.77;;;3.47;;
4089;SDS011;2059;48.538;12.146;2023-03-31T00:17:40;4.43;;;3.93;;
4089;SDS011;2059;48.538;12.146;2023-03-31T00:22:43;4.20;;;3.50;;
4089;SDS011;2059;48.538;12.146;2023-03-31T00:27:46;5.43;;;3.83;;
4089;SDS011;2059;48.538;12.146;2023-03-31T00:32:49;4.10;;;3.73;;
4089;SDS011;2059;48.538;12.146;2023-03-31T00:37:52;6.23;;;3.60;;
4089;SDS011;2059;48.538;12.146;2023-03-31T00:42:56;4.97;;;4.53;;
4089;SDS011;2059;48.538;12.146;2023-03-31T00:48:00;5.10;;;4.03;;
4089;SDS011;2059;48.538;12.146;2023-03-31T00:53:11;3.83;;;3.53;;
4089;SDS011;2059;48.538;12.146;2023-03-31T00:58:16;7.40;;;5.03;;
4089;SDS011;2059;48.538;12.146;2023-03-31T01:03:19;5.03;;;4.57;;
4089;SDS011;2059;48.538;12.146;2023-03-31T01:08:24;8.53;;;4.47;;
4089;SDS011;2059;48.538;12.146;2023-03-31T01:13:27;7.53;;;3.93;;
4089;SDS011;2059;48.538;12.146;2023-03-31T01:18:31;6.13;;;5.63;;
4089;SDS011;2059;48.538;12.146;2023-03-31T01:29:16;7.93;;;7.27;;
4089;SDS011;2059;48.538;12.146;2023-03-31T01:34:56;8.77;;;6.13;;
4089;SDS011;2059;48.538;12.146;2023-03-31T01:40:24;6.70;;;6.00;;
4089;SDS011;2059;48.538;12.146;2023-03-31T01:45:49;6.43;;;5.93;;
4089;SDS011;2059;48.538;12.146;2023-03-31T01:50:57;5.10;;;3.97;;
4089;SDS011;2059;48.538;12.146;2023-03-31T01:56:04;9.70;;;6.10;;
4089;SDS011;2059;48.538;12.146;2023-03-31T02:01:09;7.13;;;5.07;;
4089;SDS011;2059;48.538;12.146;2023-03-31T02:06:18;5.97;;;5.47;;
4089;SDS011;2059;48.538;12.146;2023-03-31T02:11:26;8.83;;;7.00;;
4089;SDS011;2059;48.538;12.146;2023-03-31T02:16:31;6.90;;;6.30;;
4089;SDS011;2059;48.538;12.146;2023-03-31T02:21:40;5.80;;;5.30;;
4089;SDS011;2059;48.538;12.146;2023-03-31T02:26:44;7.43;;;6.27;;
4089;SDS011;2059;48.538;12.146;2023-03-31T02:31:53;5.40;;;4.90;;
4089;SDS011;2059;48.538;12.146;2023-03-31T02:37:00;10.90;;;5.90;;
4089;SDS011;2059;48.538;12.146;2023-03-31T02:42:04;7.30;;;4.77;;
4089;SDS011;2059;48.538;12.146;2023-03-31T02:47:07;4.93;;;4.53;;
4089;SDS011;2059;48.538;12.146;2023-03-31T02:52:18;4.80;;;4.30;;
4089;SDS011;2059;48.538;12.146;2023-03-31T03:03:21;5.53;;;4.97;;
4089;SDS011;2059;48.538;12.146;2023-03-31T03:08:35;8.83;;;4.97;;
4089;SDS011;2059;48.538;12.146;2023-03-31T03:13:49;5.40;;;4.90;;
4089;SDS011;2059;48.538;12.146;2023-03-31T03:18:55;9.40;;;5.00;;
4089;SDS011;2059;48.538;12.146;2023-03-31T03:23:58;6.13;;;5.40;;
4089;SDS011;2059;48.538;12.146;2023-03-31T03:29:02;7.43;;;5.00;;
4089;SDS011;2059;48.538;12.146;2023-03-31T03:34:03;6.73;;;5.70;;
4089;SDS011;2059;48.538;12.146;2023-03-31T03:39:06;7.13;;;5.23;;
4089;SDS011;2059;48.538;12.146;2023-03-31T03:44:09;6.33;;;5.10;;
4089;SDS011;2059;48.538;12.146;2023-03-31T03:49:11;7.10;;;5.37;;
4089;SDS011;2059;48.538;12.146;2023-03-31T03:54:13;6.20;;;5.47;;
4089;SDS011;2059;48.538;12.146;2023-03-31T03:59:16;9.93;;;6.17;;
4089;SDS011;2059;48.538;12.146;2023-03-31T04:04:18;7.13;;;5.83;;
4089;SDS011;2059;48.538;12.146;2023-03-31T04:09:19;7.90;;;6.50;;
4089;SDS011;2059;48.538;12.146;2023-03-31T04:14:23;9.27;;;7.70;;
4089;SDS011;2059;48.538;12.146;2023-03-31T04:19:25;8.57;;;7.30;;
4089;SDS011;2059;48.538;12.146;2023-03-31T04:24:27;14.17;;;7.93;;
4089;SDS011;2059;48.538;12.146;2023-03-31T04:29:33;10.53;;;7.80;;
4089;SDS011;2059;48.538;12.146;2023-03-31T04:34:36;10.10;;;8.80;;
4089;SDS011;2059;48.538;12.146;2023-03-31T04:39:38;10.60;;;8.63;;
4089;SDS011;2059;48.538;12.146;2023-03-31T04:44:41;10.47;;;8.50;;
4089;SDS011;2059;48.538;12.146;2023-03-31T04:49:42;9.63;;;7.67;;
4089;SDS011;2059;48.538;12.146;2023-03-31T04:54:44;8.83;;;7.47;;
4089;SDS011;2059;48.538;12.146;2023-03-31T04:59:47;13.03;;;7.83;;
4089;SDS011;2059;48.538;12.146;2023-03-31T05:04:49;12.47;;;7.43;;
4089;SDS011;2059;48.538;12.146;2023-03-31T05:09:51;11.40;;;8.17;;
4089;SDS011;2059;48.538;12.146;2023-03-31T05:14:54;9.30;;;7.20;;
4089;SDS011;2059;48.538;12.146;2023-03-31T05:19:56;9.03;;;7.30;;
4089;SDS011;2059;48.538;12.146;2023-03-31T05:24:57;8.40;;;7.20;;
4089;SDS011;2059;48.538;12.146;2023-03-31T05:30:01;10.57;;;7.50;;
4089;SDS011;2059;48.538;12.146;2023-03-31T05:35:04;9.23;;;7.37;;
4089;SDS011;2059;48.538;12.146;2023-03-31T05:40:07;13.40;;;7.33;;
4089;SDS011;2059;48.538;12.146;2023-03-31T05:45:11;10.90;;;7.00;;
4089;SDS011;2059;48.538;12.146;2023-03-31T05:50:12;10.73;;;7.77;;
4089;SDS011;2059;48.538;12.146;2023-03-31T05:55:14;12.40;;;7.50;;
4089;SDS011;2059;48.538;12.146;2023-03-31T06:00:19;14.10;;;7.13;;
4089;SDS011;2059;48.538;12.146;2023-03-31T06:05:21;12.10;;;7.60;;
4089;SDS011;2059;48.538;12.146;2023-03-31T06:10:25;9.67;;;7.43;;
4089;SDS011;2059;48.538;12.146;2023-03-31T06:15:28;12.47;;;8.27;;
4089;SDS011;2059;48.538;12.146;2023-03-31T06:20:30;10.97;;;8.00;;
4089;SDS011;2059;48.538;12.146;2023-03-31T06:25:32;10.80;;;7.43;;
4089;SDS011;2059;48.538;12.146;2023-03-31T06:30:35;10.53;;;7.90;;
4089;SDS011;2059;48.538;12.146;2023-03-31T06:35:37;7.87;;;7.07;;
4089;SDS011;2059;48.538;12.146;2023-03-31T06:40:39;6.60;;;5.93;;
4089;SDS011;2059;48.538;12.146;2023-03-31T06:45:43;8.27;;;6.03;;
4089;SDS011;2059;48.538;12.146;2023-03-31T06:50:45;11.47;;;7.13;;
4089;SDS011;2059;48.538;12.146;2023-03-31T06:55:47;8.97;;;7.20;;
4089;SDS011;2059;48.538;12.146;2023-03-31T07:00:50;7.93;;;5.83;;
4089;SDS011;2059;48.538;12.146;2023-03-31T07:05:53;11.47;;;6.60;;
4089;SDS011;2059;48.538;12.146;2023-03-31T07:10:56;6.57;;;5.80;;
4089;SDS011;2059;48.538;12.146;2023-03-31T07:16:01;10.80;;;5.83;;
4089;SDS011;2059;48.538;12.146;2023-03-31T07:21:04;10.57;;;5.50;;
4089;SDS011;2059;48.538;12.146;2023-03-31T07:26:06;8.30;;;5.67;;
4089;SDS011;2059;48.538;12.146;2023-03-31T07:31:12;8.80;;;6.60;;
4089;SDS011;2059;48.538;12.146;2023-03-31T07:36:15;9.40;;;7.57;;
4089;SDS011;2059;48.538;12.146;2023-03-31T07:41:17;8.63;;;6.40;;
4089;SDS011;2059;48.538;12.146;2023-03-31T07:46:23;11.07;;;7.43;;
4089;SDS011;2059;48.538;12.146;2023-03-31T07:51:26;13.17;;;7.70;;
4089;SDS011;2059;48.538;12.146;2023-03-31T07:56:28;7.80;;;7.00;;
4089;SDS011;2059;48.538;12.146;2023-03-31T08:01:34;17.13;;;8.30;;
4089;SDS011;2059;48.538;12.146;2023-03-31T08:06:36;14.17;;;7.80;;
4089;SDS011;2059;48.538;12.146;2023-03-31T08:11:39;12.13;;;7.40;;
4089;SDS011;2059;48.538;12.146;2023-03-31T08:16:42;8.70;;;7.57;;
4089;SDS011;2059;48.538;12.146;2023-03-31T08:21:44;11.37;;;7.03;;
4089;SDS011;2059;48.538;12.146;2023-03-31T08:26:46;10.80;;;8.00;;
4089;SDS011;2059;48.538;12.146;2023-03-31T08:31:49;7.93;;;7.20;;
4089;SDS011;2059;48.538;12.146;2023-03-31T08:36:51;12.33;;;8.13;;
4089;SDS011;2059;48.538;12.146;2023-03-31T08:41:53;9.73;;;6.80;;
4089;SDS011;2059;48.538;12.146;2023-03-31T08:47:02;12.93;;;9.17;;
4089;SDS011;2059;48.538;12.146;2023-03-31T08:52:09;11.17;;;8.30;;
4089;SDS011;2059;48.538;12.146;2023-03-31T08:57:14;12.50;;;7.87;;
4089;SDS011;2059;48.538;12.146;2023-03-31T09:02:23;11.40;;;8.20;;
4089;SDS011;2059;48.538;12.146;2023-03-31T09:07:33;8.40;;;6.30;;
4089;SDS011;2059;48.538;12.146;2023-03-31T09:12:42;9.77;;;6.70;;
4089;SDS011;2059;48.538;12.146;2023-03-31T09:17:52;8.33;;;7.00;;
4089;SDS011;2059;48.538;12.146;2023-03-31T09:22:59;12.27;;;7.67;;
4089;SDS011;2059;48.538;12.146;2023-03-31T09:28:08;8.27;;;7.40;;
4089;SDS011;2059;48.538;12.146;2023-03-31T09:33:18;10.37;;;7.33;;
4089;SDS011;2059;48.538;12.146;2023-03-31T09:38:26;9.03;;;7.00;;
4089;SDS011;2059;48.538;12.146;2023-03-31T09:43:31;11.90;;;7.77;;
4089;SDS011;2059;48.538;12.146;2023-03-31T09:48:36;9.43;;;8.33;;
4089;SDS011;2059;48.538;12.146;2023-03-31T09:53:41;11.80;;;8.40;;
4089;SDS011;2059;48.538;12.146;2023-03-31T09:58:48;8.87;;;7.60;;
4089;SDS011;2059;48.538;12.146;2023-03-31T10:03:52;9.07;;;8.27;;
4089;SDS011;2059;48.538;12.146;2023-03-31T10:08:56;14.60;;;8.77;;
4089;SDS011;2059;48.538;12.146;2023-03-31T10:14:00;9.80;;;8.10;;
4089;SDS011;2059;48.538;12.146;2023-03-31T10:19:11;8.50;;;7.70;;
4089;SDS011;2059;48.538;12.146;2023-03-31T10:24:19;8.13;;;7.33;;
4089;SDS011;2059;48.538;12.146;2023-03-31T10:29:22;8.03;;;7.33;;
4089;SDS011;2059;48.538;12.146;2023-03-31T10:34:30;7.80;;;7.20;;
4089;SDS011;2059;48.538;12.146;2023-03-31T10:39:33;8.20;;;7.50;;
4089;SDS011;2059;48.538;12.146;2023-03-31T10:44:35;8.10;;;7.47;;
4089;SDS011;2059;48.538;12.146;2023-03-31T10:49:40;7.50;;;6.80;;
4089;SDS011;2059;48.538;12.146;2023-03-31T10:54:51;7.60;;;7.10;;
4089;SDS011;2059;48.538;12.146;2023-03-31T11:05:22;6.73;;;6.33;;
4089;SDS011;2059;48.538;12.146;2023-03-31T11:10:35;7.10;;;6.70;;
4089;SDS011;2059;48.538;12.146;2023-03-31T11:15:45;7.53;;;6.93;;
4089;SDS011;2059;48.538;12.146;2023-03-31T11:20:59;7.53;;;7.07;;
4089;SDS011;2059;48.538;12.146;2023-03-31T11:26:09;7.97;;;7.30;;
4089;SDS011;2059;48.538;12.146;2023-03-31T11:31:18;7.40;;;6.90;;
4089;SDS011;2059;48.538;12.146;2023-03-31T11:42:13;7.27;;;6.80;;
4089;SDS011;2059;48.538;12.146;2023-03-31T11:47:18;7.87;;;7.17;;
4089;SDS011;2059;48.538;12.146;2023-03-31T11:52:26;7.33;;;6.83;;
4089;SDS011;2059;48.538;12.146;2023-03-31T11:57:30;7.90;;;7.30;;
4089;SDS011;2059;48.538;12.146;2023-03-31T12:02:38;7.40;;;6.97;;
4089;SDS011;2059;48.538;12.146;2023-03-31T12:07:47;8.00;;;7.30;;
4089;SDS011;2059;48.538;12.146;2023-03-31T12:12:54;7.20;;;6.80;;
4089;SDS011;2059;48.538;12.146;2023-03-31T12:18:00;7.13;;;6.63;;
4089;SDS011;2059;48.538;12.146;2023-03-31T12:23:12;7.77;;;7.00;;
4089;SDS011;2059;48.538;12.146;2023-03-31T12:28:17;7.03;;;6.20;;
4089;SDS011;2059;48.538;12.146;2023-03-31T12:33:21;6.40;;;6.10;;
4089;SDS011;2059;48.538;12.146;2023-03-31T12:38:29;6.80;;;6.40;;
4089;SDS011;2059;48.538;12.146;2023-03-31T12:43:47;6.90;;;6.50;;
4089;SDS011;2059;48.538;12.146;2023-03-31T12:48:58;6.77;;;6.10;;
4089;SDS011;2059;48.538;12.146;2023-03-31T12:54:20;6.33;;;5.87;;
4089;SDS011;2059;48.538;12.146;2023-03-31T13:00:12;6.40;;;6.00;;
4089;SDS011;2059;48.538;12.146;2023-03-31T13:10:53;7.73;;;7.00;;
4089;SDS011;2059;48.538;12.146;2023-03-31T13:15:58;6.70;;;6.20;;
4089;SDS011;2059;48.538;12.146;2023-03-31T13:21:02;7.30;;;6.70;;
4089;SDS011;2059;48.538;12.146;2023-03-31T13:26:23;6.97;;;6.57;;
4089;SDS011;2059;48.538;12.146;2023-03-31T13:37:13;6.23;;;5.83;;
4089;SDS011;2059;48.538;12.146;2023-03-31T13:42:29;6.50;;;6.20;;
4089;SDS011;2059;48.538;12.146;2023-03-31T13:47:55;6.67;;;6.17;;
4089;SDS011;2059;48.538;12.146;2023-03-31T13:53:06;6.30;;;5.80;;
4089;SDS011;2059;48.538;12.146;2023-03-31T13:58:23;7.30;;;6.60;;
4089;SDS011;2059;48.538;12.146;2023-03-31T14:04:00;5.23;;;3.07;;
4089;SDS011;2059;48.538;12.146;2023-03-31T14:09:20;4.33;;;3.80;;
4089;SDS011;2059;48.538;12.146;2023-03-31T14:14:28;4.13;;;3.23;;
4089;SDS011;2059;48.538;12.146;2023-03-31T14:25:10;2.67;;;1.93;;
4089;SDS011;2059;48.538;12.146;2023-03-31T14:30:24;1.93;;;1.80;;
4089;SDS011;2059;48.538;12.146;2023-03-31T14:35:34;1.70;;;1.60;;
4089;SDS011;2059;48.538;12.146;2023-03-31T14:40:41;3.80;;;3.70;;
4089;SDS011;2059;48.538;12.146;2023-03-31T14:45:52;3.87;;;3.67;;
4089;SDS011;2059;48.538;12.146;2023-03-31T14:51:00;3.67;;;2.40;;
4089;SDS011;2059;48.538;12.146;2023-03-31T14:56:04;3.77;;;3.57;;
4089;SDS011;2059;48.538;12.146;2023-03-31T15:01:13;4.20;;;2.40;;
4089;SDS011;2059;48.538;12.146;2023-03-31T15:06:17;2.10;;;2.00;;
4089;SDS011;2059;48.538;12.146;2023-03-31T15:11:19;4.77;;;4.57;;
4089;SDS011;2059;48.538;12.146;2023-03-31T15:16:31;2.20;;;2.10;;
4089;SDS011;2059;48.538;12.146;2023-03-31T15:21:37;2.20;;;2.00;;
4089;SDS011;2059;48.538;12.146;2023-03-31T15:26:40;3.03;;;2.20;;
4089;SDS011;2059;48.538;12.146;2023-03-31T15:31:49;2.53;;;2.43;;
4089;SDS011;2059;48.538;12.146;2023-03-31T15:36:52;3.50;;;2.83;;
4089;SDS011;2059;48.538;12.146;2023-03-31T15:41:55;3.27;;;3.07;;
4089;SDS011;2059;48.538;12.146;2023-03-31T15:47:00;2.97;;;2.67;;
4089;SDS011;2059;48.538;12.146;2023-03-31T15:52:15;2.80;;;2.60;;
4089;SDS011;2059;48.538;12.146;2023-03-31T15:57:32;5.73;;;5.30;;
4089;SDS011;2059;48.538;12.146;2023-03-31T16:02:39;5.37;;;4.97;;
4089;SDS011;2059;48.538;12.146;2023-03-31T16:07:43;5.00;;;4.70;;
4089;SDS011;2059;48.538;12.146;2023-03-31T16:12:48;5.30;;;5.00;;
4089;SDS011;2059;48.538;12.146;2023-03-31T16:17:54;5.70;;;5.30;;
4089;SDS011;2059;48.538;12.146;2023-03-31T16:22:58;4.10;;;3.80;;
4089;SDS011;2059;48.538;12.146;2023-03-31T16:28:00;2.90;;;2.80;;
4089;SDS011;2059;48.538;12.146;2023-03-31T16:33:05;3.67;;;3.43;;
4089;SDS011;2059;48.538;12.146;2023-03-31T16:38:08;4.27;;;3.97;;
4089;SDS011;2059;48.538;12.146;2023-03-31T16:43:13;4.23;;;3.00;;
4089;SDS011;2059;48.538;12.146;2023-03-31T16:48:18;2.43;;;2.30;;
4089;SDS011;2059;48.538;12.146;2023-03-31T16:53:22;2.50;;;2.40;;
4089;SDS011;2059;48.538;12.146;2023-03-31T16:58:25;5.20;;;5.00;;
4089;SDS011;2059;48.538;12.146;2023-03-31T17:03:29;5.20;;;4.90;;
4089;SDS011;2059;48.538;12.146;2023-03-31T17:08:31;5.50;;;5.00;;
4089;SDS011;2059;48.538;12.146;2023-03-31T17:13:33;7.13;;;3.37;;
4089;SDS011;2059;48.538;12.146;2023-03-31T17:18:36;4.93;;;4.70;;
4089;SDS011;2059;48.538;12.146;2023-03-31T17:23:38;5.20;;;4.90;;
4089;SDS011;2059;48.538;12.146;2023-03-31T17:28:41;5.60;;;5.20;;
4089;SDS011;2059;48.538;12.146;2023-03-31T17:33:44;5.80;;;5.20;;
4089;SDS011;2059;48.538;12.146;2023-03-31T17:38:47;5.13;;;4.73;;
4089;SDS011;2059;48.538;12.146;2023-03-31T17:43:49;5.77;;;5.20;;
4089;SDS011;2059;48.538;12.146;2023-03-31T17:48:52;3.80;;;3.60;;
4089;SDS011;2059;48.538;12.146;2023-03-31T17:53:57;4.40;;;4.20;;
4089;SDS011;2059;48.538;12.146;2023-03-31T17:58:59;3.83;;;3.50;;
4089;SDS011;2059;48.538;12.146;2023-03-31T18:04:02;2.50;;;2.30;;
4089;SDS011;2059;48.538;12.146;2023-03-31T18:09:04;2.17;;;1.97;;
4089;SDS011;2059;48.538;12.146;2023-03-31T18:14:07;2.10;;;2.00;;
4089;SDS011;2059;48.538;12.146;2023-03-31T18:19:10;2.67;;;2.20;;
4089;SDS011;2059;48.538;12.146;2023-03-31T18:24:13;2.93;;;2.70;;
4089;SDS011;2059;48.538;12.146;2023-03-31T18:29:15;2.03;;;1.93;;
4089;SDS011;2059;48.538;12.146;2023-03-31T18:34:19;2.30;;;1.73;;
4089;SDS011;2059;48.538;12.146;2023-03-31T18:39:21;2.33;;;2.13;;
4089;SDS011;2059;48.538;12.146;2023-03-31T18:44:23;2.10;;;2.00;;
4089;SDS011;2059;48.538;12.146;2023-03-31T18:49:26;3.70;;;3.50;;
4089;SDS011;2059;48.538;12.146;2023-03-31T18:54:28;3.63;;;3.33;;
4089;SDS011;2059;48.538;12.146;2023-03-31T18:59:30;3.73;;;3.63;;
4089;SDS011;2059;48.538;12.146;2023-03-31T19:04:34;2.90;;;2.33;;
4089;SDS011;2059;48.538;12.146;2023-03-31T19:09:35;2.07;;;1.97;;
4089;SDS011;2059;48.538;12.146;2023-03-31T19:14:38;1.80;;;1.70;;
4089;SDS011;2059;48.538;12.146;2023-03-31T19:19:41;1.90;;;1.80;;
4089;SDS011;2059;48.538;12.146;2023-03-31T19:24:44;1.93;;;1.83;;
4089;SDS011;2059;48.538;12.146;2023-03-31T19:29:46;2.87;;;2.53;;
4089;SDS011;2059;48.538;12.146;2023-03-31T19:34:49;3.17;;;2.87;;
4089;SDS011;2059;48.538;12.146;2023-03-31T19:39:51;2.60;;;2.30;;
4089;SDS011;2059;48.538;12.146;2023-03-31T19:44:53;3.50;;;3.30;;
4089;SDS011;2059;48.538;12.146;2023-03-31T19:49:56;3.03;;;2.90;;
4089;SDS011;2059;48.538;12.146;2023-03-31T19:54:58;2.60;;;2.30;;
4089;SDS011;2059;48.538;12.146;2023-03-31T20:00:00;2.20;;;2.10;;
4089;SDS011;2059;48.538;12.146;2023-03-31T20:05:04;2.10;;;1.90;;
4089;SDS011;2059;48.538;12.146;2023-03-31T20:10:07;1.80;;;1.70;;
4089;SDS011;2059;48.538;12.146;2023-03-31T20:15:10;1.70;;;1.60;;
4089;SDS011;2059;48.538;12.146;2023-03-31T20:20:14;2.50;;;1.93;;
4089;SDS011;2059;48.538;12.146;2023-03-31T20:25:16;2.30;;;1.77;;
4089;SDS011;2059;48.538;12.146;2023-03-31T20:30:18;2.00;;;1.90;;
4089;SDS011;2059;48.538;12.146;2023-03-31T20:35:21;6.00;;;4.17;;
4089;SDS011;2059;48.538;12.146;2023-03-31T20:40:23;3.10;;;2.80;;
4089;SDS011;2059;48.538;12.146;2023-03-31T20:45:25;3.20;;;2.70;;
4089;SDS011;2059;48.538;12.146;2023-03-31T20:50:28;3.50;;;3.20;;
4089;SDS011;2059;48.538;12.146;2023-03-31T20:55:34;3.23;;;2.97;;
4089;SDS011;2059;48.538;12.146;2023-03-31T21:00:36;8.43;;;3.50;;
4089;SDS011;2059;48.538;12.146;2023-03-31T21:05:40;3.20;;;2.70;;
4089;SDS011;2059;48.538;12.146;2023-03-31T21:10:43;4.83;;;3.40;;
4089;SDS011;2059;48.538;12.146;2023-03-31T21:15:46;3.33;;;3.10;;
4089;SDS011;2059;48.538;12.146;2023-03-31T21:20:50;3.60;;;3.50;;
4089;SDS011;2059;48.538;12.146;2023-03-31T21:25:54;4.60;;;4.30;;
4089;SDS011;2059;48.538;12.146;2023-03-31T21:30:59;3.83;;;3.63;;
4089;SDS011;2059;48.538;12.146;2023-03-31T21:36:05;4.07;;;3.77;;
4089;SDS011;2059;48.538;12.146;2023-03-31T21:41:09;3.80;;;3.50;;
4089;SDS011;2059;48.538;12.146;2023-03-31T21:46:14;5.47;;;3.97;;
4089;SDS011;2059;48.538;12.146;2023-03-31T21:51:18;2.57;;;2.37;;
4089;SDS011;2059;48.538;12.146;2023-03-31T21:56:22;3.73;;;2.20;;
4089;SDS011;2059;48.538;12.146;2023-03-31T22:01:26;2.13;;;1.93;;
4089;SDS011;2059;48.538;12.146;2023-03-31T22:06:30;2.63;;;2.30;;
4089;SDS011;2059;48.538;12.146;2023-03-31T22:11:33;3.40;;;2.07;;
4089;SDS011;2059;48.538;12.146;2023-03-31T22:16:35;5.60;;;2.10;;
4089;SDS011;2059;48.538;12.146;2023-03-31T22:21:38;3.33;;;2.20;;
4089;SDS011;2059;48.538;12.146;2023-03-31T22:26:42;4.23;;;2.40;;
4089;SDS011;2059;48.538;12.146;2023-03-31T22:31:44;4.97;;;2.43;;
4089;SDS011;2059;48.538;12.146;2023-03-31T22:36:47;5.10;;;2.20;;
4089;SDS011;2059;48.538;12.146;2023-03-31T22:41:49;3.93;;;1.90;;
4089;SDS011;2059;48.538;12.146;2023-03-31T22:46:51;3.00;;;2.27;;
4089;SDS011;2059;48.538;12.146;2023-03-31T22:51:54;6.00;;;1.97;;
4089;SDS011;2059;48.538;12.146;2023-03-31T22:56:56;1.87;;;1.70;;
4089;SDS011;2059;48.538;12.146;2023-03-31T23:01:58;3.30;;;1.63;;
4089;SDS011;2059;48.538;12.146;2023-03-31T23:07:01;2.60;;;2.50;;
4089;SDS011;2059;48.538;12.146;2023-03-31T23:12:03;4.20;;;2.60;;
4089;SDS011;2059;48.538;12.146;2023-03-31T23:17:05;3.27;;;3.07;;
4089;SDS011;2059;48.538;12.146;2023-03-31T23:22:09;3.03;;;2.30;;
4089;SDS011;2059;48.538;12.146;2023-03-31T23:27:11;3.00;;;2.70;;
4089;SDS011;2059;48.538;12.146;2023-03-31T23:32:13;2.77;;;2.57;;
4089;SDS011;2059;48.538;12.146;2023-03-31T23:37:16;4.27;;;2.57;;
4089;SDS011;2059;48.538;12.146;2023-03-31T23:42:18;2.33;;;2.23;;
4089;SDS011;2059;48.538;12.146;2023-03-31T23:47:20;2.90;;;2.60;;
4089;SDS011;2059;48.538;12.146;2023-03-31T23:52:24;4.07;;;2.57;;
4089;SDS011;2059;48.538;12.146;2023-03-31T23:57:26;4.27;;;2.33;;
